createdAt,value
2018-07-06T00:00:52.622Z,5.70
2018-07-06T00:03:31.889Z,4.90
2018-07-06T00:06:05.409Z,4.97
2018-07-06T00:08:45.321Z,5.30
2018-07-06T00:11:24.833Z,4.67
2018-07-06T00:14:05.003Z,4.77
2018-07-06T00:16:44.366Z,5.50
2018-07-06T00:19:23.894Z,4.03
2018-07-06T00:22:03.289Z,4.00
2018-07-06T00:24:42.834Z,4.97
2018-07-06T00:27:22.297Z,4.40
2018-07-06T00:29:55.761Z,4.30
2018-07-06T00:32:35.129Z,5.00
2018-07-06T00:35:14.533Z,5.00
2018-07-06T00:37:53.905Z,4.27
2018-07-06T00:40:33.407Z,4.30
2018-07-06T00:43:12.791Z,4.47
2018-07-06T00:45:46.214Z,3.53
2018-07-06T00:48:25.643Z,3.67
2018-07-06T00:51:04.891Z,4.13
2018-07-06T00:53:44.245Z,3.60
2018-07-06T00:56:23.774Z,4.00
2018-07-06T00:59:03.314Z,3.67
2018-07-06T01:01:42.897Z,4.00
2018-07-06T01:04:22.317Z,3.90
2018-07-06T01:07:01.675Z,4.00
2018-07-06T01:09:41.389Z,4.10
2018-07-06T01:12:26.261Z,3.93
2018-07-06T01:15:11.238Z,4.93
2018-07-06T01:17:50.614Z,3.90
2018-07-06T01:20:30.110Z,3.70
2018-07-06T01:23:09.517Z,4.17
2018-07-06T01:25:48.940Z,4.27
2018-07-06T01:28:28.480Z,4.03
2018-07-06T01:31:07.961Z,4.37
2018-07-06T01:33:47.343Z,3.80
2018-07-06T01:36:26.738Z,4.37
2018-07-06T01:39:06.080Z,3.50
2018-07-06T01:41:45.473Z,4.07
2018-07-06T01:44:24.929Z,4.30
2018-07-06T01:47:04.468Z,3.77
2018-07-06T01:49:43.841Z,3.73
2018-07-06T01:52:23.339Z,3.50
2018-07-06T01:55:02.901Z,4.20
2018-07-06T01:57:42.271Z,4.03
2018-07-06T02:00:21.701Z,4.00
2018-07-06T02:03:01.218Z,3.93
2018-07-06T02:05:40.588Z,3.97
2018-07-06T02:08:20.150Z,3.70
2018-07-06T02:10:59.640Z,3.97
2018-07-06T02:13:39.109Z,4.23
2018-07-06T02:16:18.751Z,3.80
2018-07-06T02:18:58.253Z,5.27
2018-07-06T02:21:37.601Z,5.37
2018-07-06T02:24:17.004Z,5.17
2018-07-06T02:26:56.704Z,5.27
2018-07-06T02:29:36.133Z,4.90
2018-07-06T02:32:15.514Z,5.70
2018-07-06T02:34:55.043Z,5.10
2018-07-06T02:37:34.446Z,4.83
2018-07-06T02:40:14.061Z,7.07
2018-07-06T02:42:53.866Z,5.23
2018-07-06T02:45:33.475Z,4.63
2018-07-06T02:48:12.829Z,4.10
2018-07-06T02:50:52.241Z,5.10
2018-07-06T02:53:32.003Z,4.77
2018-07-06T02:56:11.525Z,5.67
2018-07-06T02:58:51.365Z,4.97
2018-07-06T03:01:30.849Z,4.70
2018-07-06T03:04:10.240Z,5.07
2018-07-06T03:06:49.760Z,5.50
2018-07-06T03:09:29.321Z,4.07
2018-07-06T03:12:02.973Z,4.43
2018-07-06T03:14:42.485Z,4.60
2018-07-06T03:17:22.589Z,4.30
2018-07-06T03:20:02.070Z,4.60
2018-07-06T03:22:42.407Z,4.93
2018-07-06T03:25:15.926Z,6.00
2018-07-06T03:27:55.882Z,5.17
2018-07-06T03:30:35.207Z,4.70
2018-07-06T03:33:14.621Z,5.00
2018-07-06T03:35:48.049Z,5.13
2018-07-06T03:38:21.597Z,5.30
2018-07-06T03:41:01.019Z,5.00
2018-07-06T03:43:40.461Z,4.50
2018-07-06T03:46:20.062Z,4.27
2018-07-06T03:48:59.485Z,4.53
2018-07-06T03:51:38.898Z,4.77
2018-07-06T03:54:18.232Z,4.30
2018-07-06T03:56:57.637Z,4.57
2018-07-06T03:59:37.206Z,4.40
2018-07-06T04:02:16.465Z,4.53
2018-07-06T04:04:55.958Z,3.93
2018-07-06T04:07:35.366Z,4.27
2018-07-06T04:10:14.864Z,4.70
2018-07-06T04:12:54.250Z,4.17
2018-07-06T04:15:33.514Z,4.03
2018-07-06T04:18:12.881Z,4.17
2018-07-06T04:20:52.269Z,5.10
2018-07-06T04:23:31.789Z,4.60
2018-07-06T04:26:11.137Z,5.07
2018-07-06T04:28:50.694Z,3.90
2018-07-06T04:31:30.283Z,5.00
2018-07-06T04:34:09.773Z,4.67
2018-07-06T04:36:49.163Z,5.73
2018-07-06T04:39:28.522Z,4.80
2018-07-06T04:42:08.100Z,5.00
2018-07-06T04:44:47.709Z,5.17
2018-07-06T04:47:27.053Z,5.20
2018-07-06T04:50:06.674Z,5.37
2018-07-06T04:52:46.198Z,5.10
2018-07-06T04:55:25.570Z,5.37
2018-07-06T04:58:05.102Z,5.83
2018-07-06T05:00:44.498Z,5.10
2018-07-06T05:03:24.077Z,5.10
2018-07-06T05:06:03.385Z,4.73
2018-07-06T05:08:42.918Z,5.20
2018-07-06T05:11:22.274Z,5.33
2018-07-06T05:14:01.626Z,5.50
2018-07-06T05:16:41.134Z,5.57
2018-07-06T05:19:14.736Z,4.90
2018-07-06T05:21:54.222Z,4.90
2018-07-06T05:24:33.725Z,4.73
2018-07-06T05:27:13.151Z,5.10
2018-07-06T05:29:52.713Z,5.70
2018-07-06T05:32:32.002Z,5.30
2018-07-06T05:35:11.482Z,5.97
2018-07-06T05:37:50.968Z,5.93
2018-07-06T05:40:30.414Z,4.80
2018-07-06T05:43:03.977Z,5.93
2018-07-06T05:45:43.386Z,5.60
2018-07-06T05:48:22.948Z,5.43
2018-07-06T05:51:02.418Z,5.07
2018-07-06T05:53:41.967Z,6.10
2018-07-06T05:56:22.561Z,5.50
2018-07-06T05:59:02.070Z,5.00
2018-07-06T06:01:41.618Z,4.77
2018-07-06T06:04:22.352Z,5.47
2018-07-06T06:07:02.000Z,4.50
2018-07-06T06:09:30.115Z,5.50
2018-07-06T06:11:58.153Z,5.13
2018-07-06T06:14:26.025Z,5.60
2018-07-06T06:16:54.078Z,5.53
2018-07-06T06:19:22.116Z,5.13
2018-07-06T06:21:50.809Z,5.13
2018-07-06T06:24:18.866Z,5.33
2018-07-06T06:26:46.907Z,6.27
2018-07-06T06:29:14.947Z,5.70
2018-07-06T06:31:43.190Z,6.40
2018-07-06T06:34:11.411Z,6.20
2018-07-06T06:36:39.474Z,6.80
2018-07-06T06:39:07.960Z,6.90
2018-07-06T06:41:36.006Z,5.27
2018-07-06T06:44:04.132Z,6.50
2018-07-06T06:46:32.240Z,6.37
2018-07-06T06:49:00.246Z,6.70
2018-07-06T06:51:28.323Z,8.07
2018-07-06T06:53:56.409Z,7.30
2018-07-06T06:56:24.474Z,7.77
2018-07-06T06:58:52.758Z,7.40
2018-07-06T07:01:20.807Z,9.27
2018-07-06T07:03:48.906Z,7.47
2018-07-06T07:06:17.009Z,6.77
2018-07-06T07:08:45.053Z,6.90
2018-07-06T07:11:13.115Z,9.00
2018-07-06T07:13:41.489Z,8.37
2018-07-06T07:16:09.734Z,9.10
2018-07-06T07:18:37.766Z,8.50
2018-07-06T07:21:05.835Z,9.27
2018-07-06T07:23:33.876Z,8.63
2018-07-06T07:26:02.331Z,7.67
2018-07-06T07:28:30.409Z,8.10
2018-07-06T07:30:58.471Z,7.63
2018-07-06T07:33:26.501Z,7.13
2018-07-06T07:35:54.609Z,7.73
2018-07-06T07:38:22.695Z,5.87
2018-07-06T07:40:50.754Z,7.33
2018-07-06T07:43:18.793Z,7.47
2018-07-06T07:45:46.849Z,6.90
2018-07-06T07:48:14.885Z,7.00
2018-07-06T07:50:54.365Z,6.73
2018-07-06T07:53:33.777Z,7.30
2018-07-06T07:56:01.825Z,5.87
2018-07-06T07:58:29.904Z,7.37
2018-07-06T08:00:58.064Z,6.37
2018-07-06T08:03:26.017Z,5.77
2018-07-06T08:05:54.054Z,7.63
2018-07-06T08:08:22.127Z,6.40
2018-07-06T08:10:50.178Z,6.13
2018-07-06T08:13:18.237Z,6.83
2018-07-06T08:15:46.302Z,6.37
2018-07-06T08:18:14.582Z,7.70
2018-07-06T08:20:42.604Z,6.13
2018-07-06T08:23:10.673Z,6.60
2018-07-06T08:25:38.759Z,5.50
2018-07-06T08:28:06.841Z,6.40
2018-07-06T08:30:34.942Z,5.80
2018-07-06T08:33:03.702Z,5.93
2018-07-06T08:35:43.070Z,5.03
2018-07-06T08:38:11.121Z,4.90
2018-07-06T08:40:39.211Z,4.30
2018-07-06T08:43:07.506Z,4.33
2018-07-06T08:45:35.985Z,4.60
2018-07-06T08:48:04.058Z,4.13
2018-07-06T08:50:32.118Z,3.90
2018-07-06T08:53:00.165Z,4.67
2018-07-06T08:55:28.573Z,4.93
2018-07-06T08:57:57.656Z,3.57
2018-07-06T09:00:25.710Z,4.60
2018-07-06T09:02:53.858Z,3.30
2018-07-06T09:05:21.964Z,4.10
2018-07-06T09:07:49.995Z,4.70
2018-07-06T09:10:18.049Z,4.80
2018-07-06T09:12:46.088Z,3.97
2018-07-06T09:15:14.320Z,3.93
2018-07-06T09:17:42.350Z,4.60
2018-07-06T09:20:10.678Z,3.73
2018-07-06T09:22:38.634Z,4.37
2018-07-06T09:25:07.381Z,4.30
2018-07-06T09:27:35.429Z,3.90
2018-07-06T09:30:03.540Z,3.07
2018-07-06T09:32:31.557Z,4.00
2018-07-06T09:34:59.610Z,3.80
2018-07-06T09:37:27.639Z,3.37
2018-07-06T09:39:55.685Z,4.07
2018-07-06T09:42:23.750Z,3.57
2018-07-06T09:44:51.906Z,4.57
2018-07-06T09:47:19.954Z,3.37
2018-07-06T09:49:47.797Z,4.37
2018-07-06T09:52:15.873Z,4.43
2018-07-06T09:54:43.950Z,3.10
2018-07-06T09:57:11.997Z,3.67
2018-07-06T09:59:40.690Z,3.40
2018-07-06T10:02:08.746Z,3.70
2018-07-06T10:04:36.799Z,3.73
2018-07-06T10:07:04.857Z,3.57
2018-07-06T10:09:32.919Z,3.23
2018-07-06T10:12:00.948Z,2.77
2018-07-06T10:14:29.012Z,5.03
2018-07-06T10:16:57.049Z,3.40
2018-07-06T10:19:25.198Z,3.00
2018-07-06T10:21:53.189Z,2.53
2018-07-06T10:24:21.456Z,3.83
2018-07-06T10:26:49.492Z,3.07
2018-07-06T10:29:29.059Z,2.90
2018-07-06T10:32:06.174Z,2.80
2018-07-06T10:34:34.221Z,3.13
2018-07-06T10:37:02.261Z,2.77
2018-07-06T10:39:30.408Z,2.80
2018-07-06T10:41:58.394Z,4.30
2018-07-06T10:44:26.456Z,3.07
2018-07-06T10:46:54.493Z,3.40
2018-07-06T10:49:22.533Z,2.23
2018-07-06T10:51:50.620Z,2.80
2018-07-06T10:54:18.666Z,3.03
2018-07-06T10:56:46.719Z,2.60
2018-07-06T10:59:14.763Z,2.77
2018-07-06T11:01:42.801Z,1.97
2018-07-06T11:04:10.847Z,2.50
2018-07-06T11:06:38.906Z,3.83
2018-07-06T11:09:06.955Z,3.23
2018-07-06T11:11:35.044Z,3.37
2018-07-06T11:14:03.350Z,2.60
2018-07-06T11:16:31.411Z,2.80
2018-07-06T11:18:59.677Z,2.33
2018-07-06T11:21:27.710Z,2.40
2018-07-06T11:23:55.778Z,3.80
2018-07-06T11:26:23.870Z,2.47
2018-07-06T11:28:52.000Z,2.20
2018-07-06T11:31:20.090Z,2.60
2018-07-06T11:33:48.138Z,3.00
2018-07-06T11:36:16.186Z,2.70
2018-07-06T11:38:44.318Z,2.50
2018-07-06T11:41:12.480Z,2.73
2018-07-06T11:43:40.710Z,2.00
2018-07-06T11:46:08.754Z,3.30
2018-07-06T11:48:36.834Z,2.77
2018-07-06T11:51:04.902Z,1.73
2018-07-06T11:53:32.961Z,2.23
2018-07-06T11:56:01.076Z,2.10
2018-07-06T11:58:29.066Z,2.70
2018-07-06T12:00:57.105Z,2.70
2018-07-06T12:03:25.176Z,2.20
2018-07-06T12:05:53.250Z,2.00
2018-07-06T12:08:21.314Z,2.27
2018-07-06T12:10:49.513Z,3.40
2018-07-06T12:13:19.537Z,2.40
2018-07-06T12:15:47.626Z,2.87
2018-07-06T12:18:15.685Z,2.67
2018-07-06T12:20:43.723Z,2.20
2018-07-06T12:23:11.798Z,3.30
2018-07-06T12:25:40.043Z,2.70
2018-07-06T12:28:08.090Z,2.33
2018-07-06T12:30:36.131Z,2.23
2018-07-06T12:33:04.198Z,2.47
2018-07-06T12:35:32.277Z,2.67
2018-07-06T12:38:00.321Z,2.13
2018-07-06T12:40:28.369Z,2.80
2018-07-06T12:42:56.452Z,2.83
2018-07-06T12:45:24.609Z,2.67
2018-07-06T12:47:52.645Z,2.30
2018-07-06T12:50:20.697Z,3.43
2018-07-06T12:52:48.753Z,2.60
2018-07-06T12:55:16.825Z,3.03
2018-07-06T12:57:44.901Z,2.40
2018-07-06T13:00:12.937Z,2.43
2018-07-06T13:02:41.016Z,3.27
2018-07-06T13:05:09.300Z,2.33
2018-07-06T13:07:37.341Z,2.87
2018-07-06T13:10:05.670Z,2.23
2018-07-06T13:12:33.909Z,3.60
2018-07-06T13:15:01.954Z,2.90
2018-07-06T13:17:30.141Z,2.47
2018-07-06T13:19:58.105Z,2.70
2018-07-06T13:22:26.202Z,2.60
2018-07-06T13:24:54.226Z,2.70
2018-07-06T13:27:22.285Z,2.60
2018-07-06T13:29:50.313Z,2.70
2018-07-06T13:32:18.350Z,3.40
2018-07-06T13:34:46.409Z,2.53
2018-07-06T13:37:14.466Z,2.80
2018-07-06T13:39:42.553Z,2.33
2018-07-06T13:42:10.846Z,2.87
2018-07-06T13:44:38.949Z,2.90
2018-07-06T13:47:06.947Z,2.53
2018-07-06T13:49:35.005Z,2.30
2018-07-06T13:52:03.802Z,2.70
2018-07-06T13:54:31.874Z,2.70
2018-07-06T13:56:59.742Z,1.83
2018-07-06T13:59:27.866Z,3.73
2018-07-06T14:01:56.034Z,2.90
2018-07-06T14:04:25.100Z,2.30
2018-07-06T14:06:53.161Z,2.50
2018-07-06T14:09:21.246Z,2.37
2018-07-06T14:11:49.398Z,2.70
2018-07-06T14:14:17.400Z,2.20
2018-07-06T14:16:45.257Z,2.73
2018-07-06T14:19:13.335Z,2.20
2018-07-06T14:21:41.397Z,2.30
2018-07-06T14:24:09.561Z,1.70
2018-07-06T14:26:37.618Z,2.10
2018-07-06T14:29:05.706Z,2.33
2018-07-06T14:31:33.750Z,2.10
2018-07-06T14:34:01.834Z,2.70
2018-07-06T14:36:30.228Z,2.23
2018-07-06T14:38:58.281Z,2.40
2018-07-06T14:41:26.333Z,2.60
2018-07-06T14:43:54.406Z,3.10
2018-07-06T14:46:22.474Z,2.50
2018-07-06T14:48:50.307Z,2.40
2018-07-06T14:51:18.366Z,2.20
2018-07-06T14:53:46.872Z,2.50
2018-07-06T14:56:14.942Z,2.57
2018-07-06T14:58:43.029Z,2.30
2018-07-06T15:01:11.081Z,2.23
2018-07-06T15:03:39.169Z,2.30
2018-07-06T15:06:07.434Z,2.23
2018-07-06T15:08:35.459Z,2.90
2018-07-06T15:11:03.530Z,2.77
2018-07-06T15:13:31.586Z,2.10
2018-07-06T15:15:59.660Z,2.97
2018-07-06T15:18:27.691Z,2.47
2018-07-06T15:20:55.906Z,2.13
2018-07-06T15:23:23.980Z,1.83
2018-07-06T15:25:52.061Z,2.57
2018-07-06T15:28:20.145Z,2.53
2018-07-06T15:30:48.042Z,2.50
2018-07-06T15:33:16.126Z,2.00
2018-07-06T15:35:44.691Z,2.27
2018-07-06T15:38:12.789Z,3.00
2018-07-06T15:40:40.869Z,2.60
2018-07-06T15:43:08.917Z,2.20
2018-07-06T15:45:37.105Z,3.53
2018-07-06T15:48:05.160Z,2.73
2018-07-06T15:50:33.242Z,2.80
2018-07-06T15:53:01.347Z,3.23
2018-07-06T15:55:29.458Z,2.93
2018-07-06T15:57:57.522Z,2.73
2018-07-06T16:00:25.578Z,3.57
2018-07-06T16:02:53.650Z,2.50
2018-07-06T16:05:21.757Z,2.70
2018-07-06T16:07:49.818Z,2.87
2018-07-06T16:10:17.862Z,3.40
2018-07-06T16:12:46.101Z,2.20
2018-07-06T16:15:14.194Z,4.20
2018-07-06T16:17:42.304Z,1.80
2018-07-06T16:20:10.350Z,2.67
2018-07-06T16:22:38.393Z,2.27
2018-07-06T16:25:06.549Z,2.87
2018-07-06T16:27:34.661Z,2.63
2018-07-06T16:30:02.510Z,2.50
2018-07-06T16:32:30.569Z,2.53
2018-07-06T16:34:58.638Z,2.40
2018-07-06T16:37:26.715Z,3.20
2018-07-06T16:39:54.806Z,3.43
2018-07-06T16:42:22.865Z,2.77
2018-07-06T16:44:51.155Z,2.60
2018-07-06T16:47:19.208Z,3.17
2018-07-06T16:49:47.282Z,2.03
2018-07-06T16:52:15.431Z,2.47
2018-07-06T16:54:43.454Z,2.60
2018-07-06T16:57:11.540Z,2.77
2018-07-06T16:59:39.581Z,2.87
2018-07-06T17:02:07.725Z,2.50
2018-07-06T17:04:35.789Z,3.43
2018-07-06T17:07:03.989Z,2.53
2018-07-06T17:09:38.705Z,2.93
2018-07-06T17:12:06.909Z,3.00
2018-07-06T17:14:34.985Z,2.60
2018-07-06T17:17:03.150Z,2.00
2018-07-06T17:19:32.269Z,2.70
2018-07-06T17:22:00.310Z,2.27
2018-07-06T17:24:28.169Z,2.03
2018-07-06T17:26:56.270Z,3.47
2018-07-06T17:29:24.316Z,3.53
2018-07-06T17:31:52.396Z,2.77
2018-07-06T17:34:20.451Z,2.80
2018-07-06T17:36:48.530Z,2.90
2018-07-06T17:39:16.616Z,3.27
2018-07-06T17:41:44.700Z,2.90
2018-07-06T17:44:12.760Z,3.20
2018-07-06T17:46:40.801Z,2.60
2018-07-06T17:49:08.849Z,3.10
2018-07-06T17:51:36.925Z,2.50
2018-07-06T17:54:05.117Z,3.10
2018-07-06T17:56:33.831Z,2.80
2018-07-06T17:59:01.941Z,3.67
2018-07-06T18:01:30.035Z,2.87
2018-07-06T18:03:58.086Z,2.40
2018-07-06T18:06:26.187Z,2.47
2018-07-06T18:08:54.034Z,2.43
2018-07-06T18:11:22.132Z,2.90
2018-07-06T18:13:50.449Z,2.83
2018-07-06T18:16:18.561Z,3.30
2018-07-06T18:18:46.646Z,3.60
2018-07-06T18:21:14.714Z,3.23
2018-07-06T18:23:42.762Z,2.60
2018-07-06T18:26:10.813Z,3.43
2018-07-06T18:28:38.902Z,3.03
2018-07-06T18:31:06.961Z,2.67
2018-07-06T18:33:35.031Z,4.50
2018-07-06T18:36:03.623Z,3.70
2018-07-06T18:38:31.726Z,3.83
2018-07-06T18:40:59.583Z,2.97
2018-07-06T18:43:27.487Z,2.87
2018-07-06T18:45:55.580Z,2.57
2018-07-06T18:48:23.713Z,2.90
2018-07-06T18:50:51.771Z,5.53
2018-07-06T18:53:19.833Z,2.60
2018-07-06T18:55:47.898Z,2.80
2018-07-06T18:58:16.964Z,2.43
2018-07-06T19:00:45.025Z,2.80
2018-07-06T19:03:13.088Z,2.97
2018-07-06T19:05:41.144Z,3.23
2018-07-06T19:08:09.407Z,3.10
2018-07-06T19:10:37.482Z,2.30
2018-07-06T19:13:05.541Z,2.50
2018-07-06T19:15:33.626Z,3.33
2018-07-06T19:18:01.685Z,3.20
2018-07-06T19:20:29.773Z,3.00
2018-07-06T19:22:57.894Z,3.10
2018-07-06T19:25:25.940Z,2.80
2018-07-06T19:27:54.006Z,3.10
2018-07-06T19:30:22.065Z,3.30
2018-07-06T19:32:50.113Z,3.70
2018-07-06T19:35:18.187Z,2.70
2018-07-06T19:37:46.233Z,3.50
2018-07-06T19:40:14.342Z,3.27
2018-07-06T19:42:42.395Z,3.47
2018-07-06T19:45:10.437Z,3.73
2018-07-06T19:47:38.502Z,2.40
2018-07-06T19:50:06.602Z,3.17
2018-07-06T19:52:34.710Z,4.40
2018-07-06T19:55:02.790Z,2.93
2018-07-06T19:57:30.869Z,3.17
2018-07-06T19:59:58.981Z,2.70
2018-07-06T20:02:27.047Z,3.23
2018-07-06T20:04:55.119Z,3.43
2018-07-06T20:07:23.189Z,2.20
2018-07-06T20:09:51.029Z,3.97
2018-07-06T20:12:19.076Z,2.93
2018-07-06T20:14:47.133Z,2.50
2018-07-06T20:17:15.196Z,3.80
2018-07-06T20:19:43.256Z,3.17
2018-07-06T20:22:11.354Z,3.63
2018-07-06T20:24:39.604Z,2.97
2018-07-06T20:27:07.669Z,3.07
2018-07-06T20:29:35.726Z,2.90
2018-07-06T20:32:03.822Z,3.17
2018-07-06T20:34:31.981Z,3.20
2018-07-06T20:37:00.090Z,3.50
2018-07-06T20:39:28.159Z,3.70
2018-07-06T20:41:56.409Z,4.10
2018-07-06T20:44:24.460Z,2.60
2018-07-06T20:46:53.037Z,4.20
2018-07-06T20:49:21.120Z,2.80
2018-07-06T20:51:49.236Z,2.80
2018-07-06T20:54:17.338Z,2.70
2018-07-06T20:56:45.452Z,3.13
2018-07-06T20:59:13.578Z,3.23
2018-07-06T21:01:41.671Z,4.17
2018-07-06T21:04:09.728Z,2.83
2018-07-06T21:06:37.797Z,3.67
2018-07-06T21:09:06.178Z,2.90
2018-07-06T21:11:35.093Z,3.50
2018-07-06T21:14:03.158Z,3.70
2018-07-06T21:16:31.210Z,2.77
2018-07-06T21:18:59.309Z,3.83
2018-07-06T21:21:27.365Z,3.30
2018-07-06T21:23:55.421Z,3.43
2018-07-06T21:26:23.502Z,2.70
2018-07-06T21:28:51.661Z,3.17
2018-07-06T21:31:19.746Z,2.70
2018-07-06T21:33:47.843Z,3.20
2018-07-06T21:36:15.888Z,3.50
2018-07-06T21:38:43.946Z,3.33
2018-07-06T21:41:11.995Z,3.63
2018-07-06T21:43:40.062Z,4.20
2018-07-06T21:46:08.122Z,3.20
2018-07-06T21:48:36.175Z,3.03
2018-07-06T21:51:04.237Z,4.30
2018-07-06T21:53:32.297Z,3.00
2018-07-06T21:56:00.351Z,2.80
2018-07-06T21:58:28.399Z,3.30
2018-07-06T22:00:56.498Z,3.10
2018-07-06T22:03:24.554Z,2.47
2018-07-06T22:05:52.605Z,3.53
2018-07-06T22:08:20.680Z,3.70
2018-07-06T22:10:48.728Z,3.93
2018-07-06T22:13:16.813Z,3.60
2018-07-06T22:15:46.609Z,4.00
2018-07-06T22:18:16.975Z,2.87
2018-07-06T22:20:45.864Z,3.17
2018-07-06T22:23:14.437Z,2.90
2018-07-06T22:25:42.926Z,3.60
2018-07-06T22:28:11.058Z,2.27
2018-07-06T22:30:39.128Z,3.67
2018-07-06T22:33:07.250Z,3.40
2018-07-06T22:35:35.371Z,2.90
2018-07-06T22:38:03.413Z,4.30
2018-07-06T22:40:31.546Z,4.10
2018-07-06T22:42:59.754Z,2.93
2018-07-06T22:45:27.816Z,2.60
2018-07-06T22:47:55.886Z,3.30
2018-07-06T22:50:23.937Z,3.20
2018-07-06T22:52:51.981Z,2.63
2018-07-06T22:55:20.091Z,3.37
2018-07-06T22:57:48.141Z,3.57
2018-07-06T23:00:16.214Z,3.43
2018-07-06T23:02:44.254Z,3.83
2018-07-06T23:05:14.360Z,3.93
2018-07-06T23:07:42.354Z,3.47
2018-07-06T23:10:10.576Z,3.13
2018-07-06T23:12:39.329Z,3.00
2018-07-06T23:15:07.686Z,2.70
2018-07-06T23:17:36.329Z,2.83
2018-07-06T23:20:04.609Z,4.00
2018-07-06T23:23:12.013Z,3.67
2018-07-06T23:25:44.157Z,3.63
2018-07-06T23:28:12.217Z,3.03
2018-07-06T23:30:40.321Z,3.70
2018-07-06T23:33:08.985Z,3.57
2018-07-06T23:35:37.049Z,4.20
2018-07-06T23:38:05.137Z,3.40
2018-07-06T23:40:33.368Z,3.77
2018-07-06T23:43:01.449Z,3.70
2018-07-06T23:45:29.590Z,4.10
2018-07-06T23:47:57.633Z,2.50
2018-07-06T23:50:25.694Z,3.93
2018-07-06T23:52:53.753Z,4.07
2018-07-06T23:55:21.976Z,3.70
2018-07-06T23:57:50.276Z,3.40
